createdAt,value
2022-11-04T00:01:59.061Z,100.00
2022-11-04T00:05:01.192Z,100.00
2022-11-04T00:08:21.578Z,100.00
2022-11-04T00:11:41.742Z,100.00
2022-11-04T00:14:43.536Z,100.00
2022-11-04T00:17:45.073Z,100.00
2022-11-04T00:21:05.176Z,100.00
2022-11-04T00:24:25.511Z,100.00
2022-11-04T00:27:45.744Z,100.00
2022-11-04T00:30:47.296Z,100.00
2022-11-04T00:33:49.533Z,100.00
2022-11-04T00:36:51.052Z,100.00
2022-11-04T00:39:52.708Z,100.00
2022-11-04T00:42:54.234Z,100.00
2022-11-04T00:45:55.797Z,100.00
2022-11-04T00:48:57.644Z,100.00
2022-11-04T00:51:59.223Z,100.00
2022-11-04T00:55:00.732Z,100.00
2022-11-04T00:58:02.339Z,100.00
2022-11-04T01:01:07.554Z,100.00
2022-11-04T01:04:09.271Z,100.00
2022-11-04T01:07:10.791Z,100.00
2022-11-04T01:10:12.368Z,100.00
2022-11-04T01:13:14.301Z,100.00
2022-11-04T01:16:15.916Z,100.00
2022-11-04T01:19:17.577Z,100.00
2022-11-04T01:22:19.151Z,100.00
2022-11-04T01:25:20.773Z,100.00
2022-11-04T01:28:22.338Z,100.00
2022-11-04T01:31:25.696Z,100.00
2022-11-04T01:34:27.286Z,100.00
2022-11-04T01:37:28.824Z,100.00
2022-11-04T01:40:30.397Z,100.00
2022-11-04T01:43:50.889Z,100.00
2022-11-04T01:46:52.611Z,100.00
2022-11-04T01:49:55.339Z,100.00
2022-11-04T01:53:13.231Z,100.00
2022-11-04T01:56:14.826Z,100.00
2022-11-04T01:59:18.411Z,100.00
2022-11-04T02:02:20.294Z,100.00
2022-11-04T02:05:21.932Z,100.00
2022-11-04T02:08:23.492Z,100.00
2022-11-04T02:11:43.803Z,100.00
2022-11-04T02:14:45.881Z,100.00
2022-11-04T02:18:03.792Z,100.00
2022-11-04T02:21:05.351Z,100.00
2022-11-04T02:24:19.143Z,100.00
2022-11-04T02:27:23.754Z,100.00
2022-11-04T02:30:25.291Z,100.00
2022-11-04T02:33:32.328Z,100.00
2022-11-04T02:37:00.170Z,100.00
2022-11-04T02:40:05.995Z,100.00
2022-11-04T02:43:07.840Z,100.00
2022-11-04T02:46:21.366Z,100.00
2022-11-04T02:49:40.690Z,100.00
2022-11-04T02:52:53.837Z,100.00
2022-11-04T02:55:55.857Z,100.00
2022-11-04T02:58:58.351Z,100.00
2022-11-04T03:02:00.046Z,100.00
2022-11-04T03:05:01.658Z,100.00
2022-11-04T03:08:11.173Z,100.00
2022-11-04T03:11:14.600Z,100.00
2022-11-04T03:14:17.222Z,100.00
2022-11-04T03:17:20.613Z,100.00
2022-11-04T03:20:23.095Z,100.00
2022-11-04T03:23:24.615Z,100.00
2022-11-04T03:26:30.343Z,100.00
2022-11-04T03:29:50.733Z,100.00
2022-11-04T03:32:52.249Z,100.00
2022-11-04T03:38:55.230Z,100.00
2022-11-04T03:41:57.362Z,100.00
2022-11-04T03:44:58.850Z,100.00
2022-11-04T03:48:00.398Z,100.00
2022-11-04T03:51:01.997Z,100.00
2022-11-04T03:54:03.566Z,100.00
2022-11-04T03:57:05.102Z,100.00
2022-11-04T04:00:10.520Z,100.00
2022-11-04T04:03:18.968Z,100.00
2022-11-04T04:06:21.067Z,100.00
2022-11-04T04:09:22.635Z,100.00
2022-11-04T04:12:28.031Z,100.00
2022-11-04T04:15:31.248Z,100.00
2022-11-04T04:18:58.600Z,100.00
2022-11-04T04:22:05.321Z,100.00
2022-11-04T04:25:25.505Z,100.00
2022-11-04T04:28:27.127Z,100.00
2022-11-04T04:31:47.380Z,100.00
2022-11-04T04:34:48.896Z,100.00
2022-11-04T04:37:50.463Z,100.00
2022-11-04T04:41:12.363Z,100.00
2022-11-04T04:44:34.089Z,100.00
2022-11-04T04:47:45.692Z,100.00
2022-11-04T04:50:48.661Z,100.00
2022-11-04T04:53:50.227Z,100.00
2022-11-04T04:56:51.784Z,100.00
2022-11-04T04:59:53.351Z,100.00
2022-11-04T05:02:55.006Z,100.00
2022-11-04T05:05:59.100Z,100.00
2022-11-04T05:09:00.626Z,100.00
2022-11-04T05:12:02.218Z,100.00
2022-11-04T05:15:03.888Z,100.00
2022-11-04T05:18:05.585Z,100.00
2022-11-04T05:21:11.518Z,100.00
2022-11-04T05:24:13.111Z,100.00
2022-11-04T05:27:14.618Z,100.00
2022-11-04T05:30:16.292Z,100.00
2022-11-04T05:33:17.887Z,100.00
2022-11-04T05:36:19.411Z,100.00
2022-11-04T05:39:20.966Z,100.00
2022-11-04T05:42:22.641Z,100.00
2022-11-04T05:45:24.188Z,100.00
2022-11-04T05:48:25.825Z,100.00
2022-11-04T05:51:27.913Z,100.00
2022-11-04T05:54:29.790Z,100.00
2022-11-04T05:57:31.617Z,100.00
2022-11-04T06:00:33.175Z,100.00
2022-11-04T06:03:34.715Z,100.00
2022-11-04T06:06:36.453Z,100.00
2022-11-04T06:09:41.120Z,100.00
2022-11-04T06:12:42.742Z,100.00
2022-11-04T06:15:44.344Z,100.00
2022-11-04T06:18:45.944Z,100.00
2022-11-04T06:21:47.458Z,100.00
2022-11-04T06:24:49.073Z,100.00
2022-11-04T06:27:50.623Z,100.00
2022-11-04T06:30:52.159Z,100.00
2022-11-04T06:33:53.719Z,100.00
2022-11-04T06:36:55.348Z,100.00
2022-11-04T06:39:56.859Z,100.00
2022-11-04T06:42:58.555Z,100.00
2022-11-04T06:46:00.770Z,100.00
2022-11-04T06:49:02.568Z,100.00
2022-11-04T06:52:04.172Z,100.00
2022-11-04T06:55:06.147Z,100.00
2022-11-04T06:58:07.696Z,100.00
2022-11-04T07:01:14.812Z,100.00
2022-11-04T07:04:19.355Z,100.00
2022-11-04T07:07:20.903Z,100.00
2022-11-04T07:10:22.533Z,100.00
2022-11-04T07:13:24.068Z,100.00
2022-11-04T07:16:25.620Z,100.00
2022-11-04T07:19:27.228Z,100.00
2022-11-04T07:22:28.824Z,100.00
2022-11-04T07:25:30.362Z,100.00
2022-11-04T07:28:31.921Z,100.00
2022-11-04T07:31:33.605Z,100.00
2022-11-04T07:34:35.155Z,100.00
2022-11-04T07:37:36.708Z,100.00
2022-11-04T07:40:39.469Z,100.00
2022-11-04T07:43:41.110Z,100.00
2022-11-04T07:46:42.804Z,100.00
2022-11-04T07:49:44.587Z,100.00
2022-11-04T07:52:46.259Z,100.00
2022-11-04T07:55:50.998Z,100.00
2022-11-04T07:58:52.634Z,100.00
2022-11-04T08:01:54.316Z,100.00
2022-11-04T08:04:55.975Z,100.00
2022-11-04T08:07:57.923Z,100.00
2022-11-04T08:11:00.545Z,100.00
2022-11-04T08:14:05.146Z,100.00
2022-11-04T08:17:06.728Z,100.00
2022-11-04T08:20:09.711Z,100.00
2022-11-04T08:23:12.401Z,100.00
2022-11-04T08:26:17.932Z,100.00
2022-11-04T08:29:19.636Z,100.00
2022-11-04T08:32:21.147Z,100.00
2022-11-04T08:35:22.652Z,100.00
2022-11-04T08:38:24.373Z,100.00
2022-11-04T08:41:29.395Z,100.00
2022-11-04T08:44:30.937Z,100.00
2022-11-04T08:47:32.497Z,100.00
2022-11-04T08:50:34.077Z,100.00
2022-11-04T08:53:35.742Z,100.00
2022-11-04T08:56:38.131Z,100.00
2022-11-04T08:59:39.663Z,100.00
2022-11-04T09:02:41.202Z,100.00
2022-11-04T09:05:47.669Z,100.00
2022-11-04T09:08:49.552Z,100.00
2022-11-04T09:11:51.133Z,100.00
2022-11-04T09:14:52.752Z,100.00
2022-11-04T09:17:54.341Z,100.00
2022-11-04T09:20:55.921Z,100.00
2022-11-04T09:23:57.472Z,100.00
2022-11-04T09:26:59.929Z,100.00
2022-11-04T09:30:01.674Z,100.00
2022-11-04T09:33:03.484Z,100.00
2022-11-04T09:36:05.208Z,100.00
2022-11-04T09:39:06.764Z,100.00
2022-11-04T09:42:14.482Z,100.00
2022-11-04T09:45:22.912Z,100.00
2022-11-04T09:48:28.550Z,100.00
2022-11-04T09:51:53.264Z,100.00
2022-11-04T09:54:58.216Z,100.00
2022-11-04T09:58:00.005Z,100.00
2022-11-04T10:01:15.931Z,100.00
2022-11-04T10:04:26.916Z,100.00
2022-11-04T10:07:28.493Z,100.00
2022-11-04T10:10:36.166Z,100.00
2022-11-04T10:13:47.158Z,100.00
2022-11-04T10:16:48.812Z,100.00
2022-11-04T10:20:13.125Z,100.00
2022-11-04T10:23:22.056Z,100.00
2022-11-04T10:26:36.127Z,100.00
2022-11-04T10:29:48.216Z,100.00
2022-11-04T10:33:08.834Z,100.00
2022-11-04T10:36:11.183Z,100.00
2022-11-04T10:39:18.507Z,100.00
2022-11-04T10:42:22.362Z,97.82
2022-11-04T10:45:26.498Z,93.92
2022-11-04T10:48:32.597Z,91.43
2022-11-04T10:51:34.128Z,89.62
2022-11-04T10:54:40.455Z,91.59
2022-11-04T10:57:41.959Z,89.53
2022-11-04T11:00:43.574Z,89.42
2022-11-04T11:03:45.191Z,87.02
2022-11-04T11:06:47.084Z,88.92
2022-11-04T11:09:53.996Z,88.03
2022-11-04T11:12:59.260Z,86.40
2022-11-04T11:16:11.841Z,86.32
2022-11-04T11:19:15.575Z,87.30
2022-11-04T11:22:43.443Z,87.51
2022-11-04T11:25:49.455Z,87.73
2022-11-04T11:28:58.465Z,85.12
2022-11-04T11:32:03.476Z,85.24
2022-11-04T11:35:10.735Z,87.91
2022-11-04T11:38:18.992Z,86.15
2022-11-04T11:41:25.279Z,86.27
2022-11-04T11:44:33.123Z,86.90
2022-11-04T11:47:42.310Z,86.15
2022-11-04T11:50:52.592Z,84.37
2022-11-04T11:54:12.972Z,84.16
2022-11-04T11:57:25.514Z,84.17
2022-11-04T12:10:49.841Z,85.47
2022-11-04T12:14:00.136Z,81.90
2022-11-04T12:17:40.180Z,81.50
2022-11-04T12:20:47.450Z,84.53
2022-11-04T12:23:54.943Z,87.08
2022-11-04T12:27:02.549Z,90.39
2022-11-04T12:30:14.463Z,93.81
2022-11-04T12:33:34.715Z,97.28
2022-11-04T12:36:44.129Z,99.26
2022-11-04T12:40:01.206Z,92.81
2022-11-04T12:43:09.000Z,90.23
2022-11-04T12:46:17.818Z,88.08
2022-11-04T12:49:19.418Z,87.52
2022-11-04T12:52:20.960Z,86.23
2022-11-04T12:55:22.576Z,86.75
2022-11-04T12:58:26.828Z,88.71
2022-11-04T13:01:33.304Z,86.80
2022-11-04T13:04:36.614Z,84.11
2022-11-04T13:07:58.407Z,94.01
2022-11-04T13:11:23.229Z,100.00
2022-11-04T13:14:29.493Z,100.00
2022-11-04T13:17:32.846Z,100.00
2022-11-04T13:20:45.529Z,100.00
2022-11-04T13:23:47.029Z,100.00
2022-11-04T13:26:48.891Z,100.00
2022-11-04T13:29:50.921Z,100.00
2022-11-04T13:32:52.417Z,100.00
2022-11-04T13:35:53.911Z,100.00
2022-11-04T13:38:56.633Z,100.00
2022-11-04T13:42:04.445Z,100.00
2022-11-04T13:45:14.116Z,99.21
2022-11-04T13:48:16.526Z,97.17
2022-11-04T13:51:19.275Z,95.63
2022-11-04T13:54:30.832Z,100.00
2022-11-04T13:57:34.904Z,100.00
2022-11-04T14:00:37.589Z,98.91
2022-11-04T14:03:40.725Z,94.83
2022-11-04T14:06:51.580Z,90.72
2022-11-04T14:09:54.135Z,89.80
2022-11-04T14:12:56.412Z,89.23
2022-11-04T14:16:01.131Z,89.10
2022-11-04T14:19:22.745Z,87.59
2022-11-04T14:22:31.939Z,91.72
2022-11-04T14:25:35.297Z,97.42
2022-11-04T14:28:37.263Z,100.00
2022-11-04T14:31:39.711Z,100.00
2022-11-04T14:34:42.885Z,100.00
2022-11-04T14:37:44.463Z,98.30
2022-11-04T14:40:50.891Z,93.37
2022-11-04T14:43:52.411Z,93.16
2022-11-04T14:46:55.784Z,92.35
2022-11-04T14:49:57.344Z,93.00
2022-11-04T14:52:59.316Z,94.19
2022-11-04T14:56:04.990Z,91.76
2022-11-04T14:59:07.039Z,89.63
2022-11-04T15:02:35.546Z,91.30
2022-11-04T15:05:37.653Z,92.14
2022-11-04T15:08:41.952Z,92.89
2022-11-04T15:12:01.924Z,93.12
2022-11-04T15:15:20.303Z,92.85
2022-11-04T15:18:28.105Z,98.01
2022-11-04T15:21:29.962Z,100.00
2022-11-04T15:24:31.705Z,100.00
2022-11-04T15:27:34.621Z,100.00
2022-11-04T15:30:36.179Z,100.00
2022-11-04T15:33:39.305Z,100.00
2022-11-04T15:36:41.735Z,100.00
2022-11-04T15:39:44.091Z,100.00
2022-11-04T15:42:45.784Z,100.00
2022-11-04T15:45:47.321Z,100.00
2022-11-04T15:49:01.995Z,100.00
2022-11-04T15:52:07.231Z,100.00
2022-11-04T15:55:18.868Z,100.00
2022-11-04T15:58:20.503Z,100.00
2022-11-04T16:01:22.179Z,100.00
2022-11-04T16:04:24.497Z,100.00
2022-11-04T16:07:26.393Z,100.00
2022-11-04T16:10:35.037Z,100.00
2022-11-04T16:13:36.536Z,100.00
2022-11-04T16:16:38.200Z,100.00
2022-11-04T16:19:39.827Z,100.00
2022-11-04T16:22:41.750Z,100.00
2022-11-04T16:25:43.769Z,100.00
2022-11-04T16:28:46.000Z,100.00
2022-11-04T16:32:04.248Z,100.00
2022-11-04T16:35:08.715Z,100.00
2022-11-04T16:38:10.689Z,100.00
2022-11-04T16:41:12.501Z,100.00
2022-11-04T16:44:22.035Z,100.00
2022-11-04T16:47:26.012Z,100.00
2022-11-04T16:50:27.996Z,100.00
2022-11-04T16:53:29.917Z,100.00
2022-11-04T16:56:31.841Z,100.00
2022-11-04T16:59:33.673Z,100.00
2022-11-04T17:02:38.125Z,100.00
2022-11-04T17:05:39.894Z,100.00
2022-11-04T17:08:44.484Z,100.00
2022-11-04T17:11:46.229Z,100.00
2022-11-04T17:14:48.141Z,100.00
2022-11-04T17:17:49.864Z,100.00
2022-11-04T17:20:53.433Z,100.00
2022-11-04T17:23:56.570Z,100.00
2022-11-04T17:26:58.586Z,100.00
2022-11-04T17:30:00.436Z,100.00
2022-11-04T17:33:06.539Z,100.00
2022-11-04T17:36:09.545Z,100.00
2022-11-04T17:39:12.901Z,100.00
2022-11-04T17:42:32.924Z,100.00
2022-11-04T17:45:34.768Z,100.00
2022-11-04T17:48:36.429Z,100.00
2022-11-04T17:51:39.324Z,100.00
2022-11-04T17:54:40.871Z,100.00
2022-11-04T17:57:42.410Z,100.00
2022-11-04T18:00:44.079Z,100.00
2022-11-04T18:03:45.647Z,100.00
2022-11-04T18:06:47.317Z,100.00
2022-11-04T18:09:49.025Z,100.00
2022-11-04T18:12:51.329Z,100.00
2022-11-04T18:15:53.483Z,100.00
2022-11-04T18:18:55.055Z,100.00
2022-11-04T18:21:56.873Z,100.00
2022-11-04T18:24:58.525Z,100.00
2022-11-04T18:28:00.480Z,100.00
2022-11-04T18:31:03.741Z,100.00
2022-11-04T18:34:07.559Z,100.00
2022-11-04T18:37:09.127Z,100.00
2022-11-04T18:40:10.924Z,100.00
2022-11-04T18:43:12.710Z,100.00
2022-11-04T18:46:15.339Z,100.00
2022-11-04T18:49:17.393Z,100.00
2022-11-04T18:52:19.036Z,100.00
2022-11-04T18:55:20.571Z,100.00
2022-11-04T18:58:22.567Z,100.00
2022-11-04T19:01:25.742Z,100.00
2022-11-04T19:04:27.548Z,100.00
2022-11-04T19:07:29.071Z,100.00
2022-11-04T19:10:30.619Z,100.00
2022-11-04T19:13:32.197Z,100.00
2022-11-04T19:16:34.073Z,100.00
2022-11-04T19:19:35.630Z,100.00
2022-11-04T19:22:39.399Z,100.00
2022-11-04T19:25:41.668Z,100.00
2022-11-04T19:28:48.176Z,100.00
2022-11-04T19:31:50.573Z,100.00
2022-11-04T19:34:52.129Z,100.00
2022-11-04T19:37:53.846Z,100.00
2022-11-04T19:40:55.595Z,100.00
2022-11-04T19:43:57.418Z,100.00
2022-11-04T19:46:58.929Z,100.00
2022-11-04T19:50:00.423Z,100.00
2022-11-04T19:53:02.174Z,100.00
2022-11-04T19:56:03.974Z,100.00
2022-11-04T19:59:06.645Z,100.00
2022-11-04T20:02:09.984Z,100.00
2022-11-04T20:05:11.881Z,100.00
2022-11-04T20:08:13.822Z,100.00
2022-11-04T20:11:16.179Z,100.00
2022-11-04T20:14:18.103Z,100.00
2022-11-04T20:17:19.845Z,100.00
2022-11-04T20:20:21.362Z,100.00
2022-11-04T20:23:22.964Z,100.00
2022-11-04T20:26:24.723Z,100.00
2022-11-04T20:29:26.254Z,100.00
2022-11-04T20:32:27.796Z,100.00
2022-11-04T20:35:29.448Z,100.00
2022-11-04T20:38:31.003Z,100.00
2022-11-04T20:41:32.932Z,100.00
2022-11-04T20:44:34.500Z,100.00
2022-11-04T20:47:37.148Z,100.00
2022-11-04T20:50:38.715Z,100.00
2022-11-04T20:53:40.421Z,100.00
2022-11-04T20:56:42.663Z,100.00
2022-11-04T20:59:44.200Z,100.00
2022-11-04T21:02:45.869Z,100.00
2022-11-04T21:05:47.511Z,100.00
2022-11-04T21:08:49.071Z,100.00
2022-11-04T21:11:51.328Z,100.00
2022-11-04T21:14:52.935Z,100.00
2022-11-04T21:17:54.636Z,100.00
2022-11-04T21:20:57.264Z,100.00
2022-11-04T21:23:59.573Z,100.00
2022-11-04T21:27:01.901Z,100.00
2022-11-04T21:30:03.676Z,100.00
2022-11-04T21:33:05.380Z,100.00
2022-11-04T21:36:07.852Z,100.00
2022-11-04T21:39:11.088Z,100.00
2022-11-04T21:42:12.843Z,100.00
2022-11-04T21:45:14.739Z,100.00
2022-11-04T21:48:16.279Z,100.00
2022-11-04T21:51:19.298Z,100.00
2022-11-04T21:54:20.865Z,100.00
2022-11-04T21:57:22.572Z,100.00
2022-11-04T22:00:24.248Z,100.00
2022-11-04T22:03:27.732Z,100.00
2022-11-04T22:06:34.619Z,100.00
2022-11-04T22:09:37.193Z,100.00
2022-11-04T22:12:38.755Z,100.00
2022-11-04T22:15:58.242Z,100.00
2022-11-04T22:19:00.558Z,100.00
2022-11-04T22:22:02.075Z,100.00
2022-11-04T22:25:03.782Z,100.00
2022-11-04T22:28:05.384Z,100.00
2022-11-04T22:31:11.541Z,100.00
2022-11-04T22:34:13.104Z,100.00
2022-11-04T22:37:14.782Z,100.00
2022-11-04T22:40:16.283Z,100.00
2022-11-04T22:43:17.854Z,100.00
2022-11-04T22:46:23.667Z,100.00
2022-11-04T22:49:25.207Z,100.00
2022-11-04T22:52:26.721Z,100.00
2022-11-04T22:55:28.278Z,100.00
2022-11-04T22:58:30.029Z,100.00
2022-11-04T23:01:33.225Z,100.00
2022-11-04T23:04:34.835Z,100.00
2022-11-04T23:07:36.423Z,100.00
2022-11-04T23:10:56.348Z,100.00
2022-11-04T23:14:20.631Z,100.00
2022-11-04T23:17:41.385Z,100.00
2022-11-04T23:20:42.980Z,100.00
2022-11-04T23:24:07.884Z,100.00
2022-11-04T23:27:09.540Z,100.00
2022-11-04T23:30:26.908Z,100.00
2022-11-04T23:33:46.945Z,100.00
2022-11-04T23:37:07.256Z,100.00
2022-11-04T23:40:09.061Z,100.00
2022-11-04T23:43:10.796Z,100.00
2022-11-04T23:46:31.377Z,100.00
2022-11-04T23:49:51.644Z,100.00
2022-11-04T23:53:12.295Z,100.00
2022-11-04T23:56:32.506Z,100.00
2022-11-04T23:59:52.827Z,100.00
